Strona główna
METAR-TAF:

METAR-TAF

Lotnisko :

Port lotniczy Tawau

Tawau, Malezja

Szerokość geograficzna: 04-16N, Długość geograficzna: 117-53E, wysokość: 18 m

Aktualna obserwacja pogody

Raport powstał 22 minut temu, godzina 23:00 UTC
Wiatr 3 kt z kierunków zmiennych
Temperatura 24°C
Wilgotność 89%
Ciśnienie 1012 hPa
Widzialność 10 km lub więcej
Mało chmury na wysokości 1700 ft
Przerywane chmury na wysokości 30000 ft

METAR: WBKW 232300Z VRB03KT 9999 FEW017 BKN300 24/22 Q1012

czas: 07:22 (23:22 UTC)

Prognoza

Raport powstał 6 godziny i 22 minut temu, godzina 17:00 UTC
Prognoza ważna od 23 godzina 18 UTC do 24 godzina 18 UTC
Wiatr 5 kt od północ
Widzialność 10 km lub więcej
Mało chmury na wysokości 1700 ft

TAF: WBKW 231700Z 2318/2418 35005KT 9999 FEW017

Obserwacja i prognoza pogody dla ponad 4000 lotnisk (raport METAR i TAF).

Dostępne stacje oznaczono żółtymi i czerwonymi punktami na mapie.

Najedź kursorem aby zobaczyć nazwę stacji.

Kliknij aby zobaczyć obserwacje i prognozy pogody.

Aby zmienić mapę: kliknij na zielony przycisk z czarnym krzyżykiem, aby powiększyć; na zielony przycisk z myślnikiem, aby pomniejszyć; na zielone strzałki, aby przejść do map sąsiednich.


METAR-TAF: